Reecon Whale — 9HA2885 — position and weather

sailwx.info

Track history (hours):
 
Tides and Currents Weather Stations Pressure Air Temp Water Temp Dewpoint Dewpoint Depression Visibility Wind Speed Wind Dir Waves Ship Positions

Reecon Whale

Last reported at 2016-May-28 20:13 UTC. Time now 2016-May-29 15:28 UTC.
Position N 36°51' E 010°26'.

Length 145 m; draft 8.8 m.

Type: Ship. MMSI: 256579000.

Date/timePositionNaut miles runAvg speedWind from/ knotsBaromVisibWave heightAir tempDewpointWater temp
2016-May-28 20:13N 36°51' E 010°26'0 0.0
2016-May-27 13:28N 36°51' E 010°27'0 0.0
2016-May-27 12:25N 36°51' E 010°26'0 0.0
2016-May-27 04:28N 36°51' E 010°27'0 0.0
2016-May-27 03:31N 36°51' E 010°27'0 0.0
2016-May-27 00:31N 36°51' E 010°27'0 0.0
2016-May-26 23:28N 36°51' E 010°27'0 0.0
2016-May-25 15:31N 36°51' E 010°27'70 1.4
2016-May-23 11:33N 36°59' E 011°54'1110.5
2016-May-23 10:33N 36°56' E 012°07'1111.3
2016-May-23 09:33N 36°52' E 012°20'1414.2
2016-May-23 08:34N 36°48' E 012°37'1211.6
2016-May-23 07:34N 36°44' E 012°51'1110.5
2016-May-23 06:33N 36°41' E 013°03'1010.4
2016-May-23 05:33N 36°38' E 013°15'1110.7
2016-May-23 04:34N 36°35' E 013°28'1110.9
2016-May-23 03:33N 36°32' E 013°41'1111.1
2016-May-23 02:34N 36°28' E 013°54'1111.1
2016-May-23 01:34N 36°25' E 014°07'1110.9
2016-May-23 00:33N 36°22' E 014°20'1111.0
2016-May-22 23:33N 36°21' E 014°34'1110.7
2016-May-22 22:33N 36°21' E 014°47'1110.7
2016-May-22 21:33N 36°20' E 015°00'1110.6
2016-May-22 20:33N 36°20' E 015°14'1110.7
2016-May-22 19:34N 36°20' E 015°27'1111.1
2016-May-22 18:32N 36°20' E 015°41'1411.2
2016-May-22 17:16N 36°20' E 015°59'811.1
2016-May-22 16:31N 36°20' E 016°09'1311.2
2016-May-22 15:20N 36°20' E 016°25'348 9.1
2016-May-21 01:19N 37°04' E 023°36'810.9
2016-May-21 00:33N 37°13' E 023°36'1111.0
2016-May-20 23:33N 37°23' E 023°40'1110.9
2016-May-20 22:34N 37°34' E 023°42'1010.4
2016-May-20 21:33N 37°44' E 023°40'1010.4
2016-May-20 20:34N 37°54' E 023°37'3 2.9
2016-May-20 19:33N 37°57' E 023°35'0 0.0
2016-May-20 18:33N 37°57' E 023°35'0 0.0
2016-May-20 17:33N 37°57' E 023°35'0 0.0
2016-May-20 16:33N 37°57' E 023°35'0 0.0
2016-May-20 15:33N 37°57' E 023°35'0 0.0
2016-May-20 14:33N 37°57' E 023°35'0 0.0
2016-May-20 13:33N 37°57' E 023°35'0 0.0
2016-May-20 12:33N 37°57' E 023°35'0 0.0
2016-May-20 11:33N 37°57' E 023°35'0 0.0
2016-May-20 10:33N 37°57' E 023°35'0 0.0
2016-May-20 09:33N 37°57' E 023°35'0 0.0
2016-May-20 08:33N 37°57' E 023°35'0 0.0
2016-May-20 07:33N 37°57' E 023°35'0 0.0
2016-May-20 06:33N 37°57' E 023°35'0 0.0
2016-May-20 05:33N 37°57' E 023°35'0 0.0
2016-May-20 04:33N 37°57' E 023°35'0 0.0
2016-May-20 03:33N 37°57' E 023°35'0 0.0
2016-May-20 02:33N 37°57' E 023°35'0 0.0
2016-May-20 01:33N 37°57' E 023°35'0 0.0
2016-May-20 00:33N 37°57' E 023°35'0 0.0
2016-May-19 23:33N 37°57' E 023°35'0 0.0
2016-May-19 22:33N 37°57' E 023°35'3 3.0
2016-May-19 21:33N 37°54' E 023°35'4 3.4
2016-May-19 20:31N 37°52' E 023°31'0 0.1
2016-May-19 19:32N 37°52' E 023°31'0 0.0
2016-May-19 18:31N 37°52' E 023°31'0 0.0
2016-May-19 17:31N 37°52' E 023°31'0 0.1
2016-May-19 16:31N 37°52' E 023°31'0 0.0
2016-May-19 15:31N 37°52' E 023°31'0 0.1
2016-May-19 14:31N 37°52' E 023°31'0 0.0
2016-May-19 13:31N 37°52' E 023°31'0 0.0
2016-May-19 12:31N 37°52' E 023°31'0 0.0
2016-May-19 11:31N 37°52' E 023°31'0 0.0
2016-May-19 10:31N 37°52' E 023°31'0 0.0
2016-May-19 09:31N 37°52' E 023°31'0 0.0
2016-May-19 08:31N 37°52' E 023°31'0 0.3
2016-May-19 07:34N 37°52' E 023°32'5 4.7
2016-May-19 06:33N 37°51' E 023°37'9 9.3
2016-May-19 05:33N 37°43' E 023°43'1110.9
2016-May-19 04:33N 37°32' E 023°44'1111.2
2016-May-19 03:33N 37°21' E 023°41'1110.9
2016-May-19 02:33N 37°11' E 023°38'1110.7
2016-May-19 01:32N 36°60' E 023°35'1210.9
2016-May-19 00:28N 36°49' E 023°30'1211.1
2016-May-18 23:25N 36°38' E 023°25'910.7
2016-May-18 22:32N 36°30' E 023°19'  
Track history (hours):
 
Tides and Currents Weather Stations Pressure Air Temp Water Temp Dewpoint Dewpoint Depression Visibility Wind Speed Wind Dir Waves Ship Positions

Reecon Whale

Last reported at 2016-May-28 20:13 UTC. Time now 2016-May-29 15:28 UTC.
Position N 36°51' E 010°26'.

Length 145 m; draft 8.8 m.

Type: Ship. MMSI: 256579000.

Date/timePositionNaut miles runAvg speedWind from/ knotsBaromVisibWave heightAir tempDewpointWater temp
2016-May-28 20:13N 36°51' E 010°26'0 0.0
2016-May-27 13:28N 36°51' E 010°27'0 0.0
2016-May-27 12:25N 36°51' E 010°26'0 0.0
2016-May-27 04:28N 36°51' E 010°27'0 0.0
2016-May-27 03:31N 36°51' E 010°27'0 0.0
2016-May-27 00:31N 36°51' E 010°27'0 0.0
2016-May-26 23:28N 36°51' E 010°27'0 0.0
2016-May-25 15:31N 36°51' E 010°27'70 1.4
2016-May-23 11:33N 36°59' E 011°54'1110.5
2016-May-23 10:33N 36°56' E 012°07'1111.3
2016-May-23 09:33N 36°52' E 012°20'1414.2
2016-May-23 08:34N 36°48' E 012°37'1211.6
2016-May-23 07:34N 36°44' E 012°51'1110.5
2016-May-23 06:33N 36°41' E 013°03'1010.4
2016-May-23 05:33N 36°38' E 013°15'1110.7
2016-May-23 04:34N 36°35' E 013°28'1110.9
2016-May-23 03:33N 36°32' E 013°41'1111.1
2016-May-23 02:34N 36°28' E 013°54'1111.1
2016-May-23 01:34N 36°25' E 014°07'1110.9
2016-May-23 00:33N 36°22' E 014°20'1111.0
2016-May-22 23:33N 36°21' E 014°34'1110.7
2016-May-22 22:33N 36°21' E 014°47'1110.7
2016-May-22 21:33N 36°20' E 015°00'1110.6
2016-May-22 20:33N 36°20' E 015°14'1110.7
2016-May-22 19:34N 36°20' E 015°27'1111.1
2016-May-22 18:32N 36°20' E 015°41'1411.2
2016-May-22 17:16N 36°20' E 015°59'811.1
2016-May-22 16:31N 36°20' E 016°09'1311.2
2016-May-22 15:20N 36°20' E 016°25'348 9.1
2016-May-21 01:19N 37°04' E 023°36'810.9
2016-May-21 00:33N 37°13' E 023°36'1111.0
2016-May-20 23:33N 37°23' E 023°40'1110.9
2016-May-20 22:34N 37°34' E 023°42'1010.4
2016-May-20 21:33N 37°44' E 023°40'1010.4
2016-May-20 20:34N 37°54' E 023°37'3 2.9
2016-May-20 19:33N 37°57' E 023°35'0 0.0
2016-May-20 18:33N 37°57' E 023°35'0 0.0
2016-May-20 17:33N 37°57' E 023°35'0 0.0
2016-May-20 16:33N 37°57' E 023°35'0 0.0
2016-May-20 15:33N 37°57' E 023°35'0 0.0
2016-May-20 14:33N 37°57' E 023°35'0 0.0
2016-May-20 13:33N 37°57' E 023°35'0 0.0
2016-May-20 12:33N 37°57' E 023°35'0 0.0
2016-May-20 11:33N 37°57' E 023°35'0 0.0
2016-May-20 10:33N 37°57' E 023°35'0 0.0
2016-May-20 09:33N 37°57' E 023°35'0 0.0
2016-May-20 08:33N 37°57' E 023°35'0 0.0
2016-May-20 07:33N 37°57' E 023°35'0 0.0
2016-May-20 06:33N 37°57' E 023°35'0 0.0
2016-May-20 05:33N 37°57' E 023°35'0 0.0
2016-May-20 04:33N 37°57' E 023°35'0 0.0
2016-May-20 03:33N 37°57' E 023°35'0 0.0
2016-May-20 02:33N 37°57' E 023°35'0 0.0
2016-May-20 01:33N 37°57' E 023°35'0 0.0
2016-May-20 00:33N 37°57' E 023°35'0 0.0
2016-May-19 23:33N 37°57' E 023°35'0 0.0
2016-May-19 22:33N 37°57' E 023°35'3 3.0
2016-May-19 21:33N 37°54' E 023°35'4 3.4
2016-May-19 20:31N 37°52' E 023°31'0 0.1
2016-May-19 19:32N 37°52' E 023°31'0 0.0
2016-May-19 18:31N 37°52' E 023°31'0 0.0
2016-May-19 17:31N 37°52' E 023°31'0 0.1
2016-May-19 16:31N 37°52' E 023°31'0 0.0
2016-May-19 15:31N 37°52' E 023°31'0 0.1
2016-May-19 14:31N 37°52' E 023°31'0 0.0
2016-May-19 13:31N 37°52' E 023°31'0 0.0
2016-May-19 12:31N 37°52' E 023°31'0 0.0
2016-May-19 11:31N 37°52' E 023°31'0 0.0
2016-May-19 10:31N 37°52' E 023°31'0 0.0
2016-May-19 09:31N 37°52' E 023°31'0 0.0
2016-May-19 08:31N 37°52' E 023°31'0 0.3
2016-May-19 07:34N 37°52' E 023°32'5 4.7
2016-May-19 06:33N 37°51' E 023°37'9 9.3
2016-May-19 05:33N 37°43' E 023°43'1110.9
2016-May-19 04:33N 37°32' E 023°44'1111.2
2016-May-19 03:33N 37°21' E 023°41'1110.9
2016-May-19 02:33N 37°11' E 023°38'1110.7
2016-May-19 01:32N 36°60' E 023°35'1210.9
2016-May-19 00:28N 36°49' E 023°30'1211.1
2016-May-18 23:25N 36°38' E 023°25'910.7
2016-May-18 22:32N 36°30' E 023°19'  

Dump ship's entire track history